PWSweather.com
Personal Weather Stations
Station Observations
KWIATHEL1
Marinette County, Athelstane, WI 54104

Marinette CountyAthelstane, WI 54104

Lat: 45.4, Lon: -88.12

Elevation: 960

Station Type: Acurite 5in1 Pro

http://weather.athelstanewi.com

Latest ConditionsUpdated 6:00:01 AM CST Friday, Feb 12, 2016
Currently Today's Max Today's Min Today's Average
Temperature 7.0°F-13.9°C 13.1°F-10.5°C 7.0°F-13.9°C 10.5°F-11.9°C
Dew Point -0.4°F-18.0°C 0.1°F-17.7°C -2.7°F-19.3°C -0.9°F-18.3°C
Winds 2.3 mph SW3.7 kmh SW 5.8 mph SW9.3 kmh SW - 3.1 mph 5.0 kmh
Wind Gusts 3.5 mph5.6 kmh 9.2 mph14.8 kmh - -
Humidity 71% 71% 49% 60%
Pressure 30.02 in1016.6 mb 30.06 in1017.9 mb 30.02 in1016.6 mb -
Hour Temp Dew Point Humidity Winds Wind Gusts Pressure Precip Precip Rate Daily Precip Total
06:00 AM 7.0°F-13.9°C -0.4°F-18.0°C 71% 2.3 mph SW3.7 kmh SW 3.5 mph5.6 kmh 30.02 in1016.6 mb - 0.00 in0.0 mm 0.00 in0.0 mm
05:55 AM 7.2°F-13.8°C -0.5°F-18.1°C 70% 2.3 mph WSW3.7 kmh WSW 2.3 mph3.7 kmh 30.02 in1016.6 mb - 0.00 in0.0 mm 0.00 in0.0 mm
05:50 AM 7.5°F-13.6°C -0.2°F-17.9°C 70% 4.6 mph WSW7.4 kmh WSW 4.6 mph7.4 kmh 30.02 in1016.6 mb - 0.00 in0.0 mm 0.00 in0.0 mm
05:45 AM 7.5°F-13.6°C -0.2°F-17.9°C 70% 2.3 mph WSW3.7 kmh WSW 2.3 mph3.7 kmh 30.02 in1016.6 mb - 0.00 in0.0 mm 0.00 in0.0 mm
05:40 AM 7.5°F-13.6°C -0.2°F-17.9°C 70% 2.3 mph WSW3.7 kmh WSW 2.3 mph3.7 kmh 30.02 in1016.6 mb - 0.00 in0.0 mm 0.00 in0.0 mm
05:35 AM 7.5°F-13.6°C -0.6°F-18.1°C 69% 3.5 mph SW5.6 kmh SW 3.5 mph5.6 kmh 30.02 in1016.6 mb - 0.00 in0.0 mm 0.00 in0.0 mm
05:30 AM 7.5°F-13.6°C -0.6°F-18.1°C 69% 2.3 mph SW3.7 kmh SW 3.5 mph5.6 kmh 30.02 in1016.6 mb - 0.00 in0.0 mm 0.00 in0.0 mm
05:25 AM 7.5°F-13.6°C -0.6°F-18.1°C 69% 2.3 mph WSW3.7 kmh WSW 3.5 mph5.6 kmh 30.02 in1016.6 mb - 0.00 in0.0 mm 0.00 in0.0 mm
05:20 AM 7.5°F-13.6°C -0.6°F-18.1°C 69% 3.5 mph WSW5.6 kmh WSW 4.6 mph7.4 kmh 30.02 in1016.6 mb - 0.00 in0.0 mm 0.00 in0.0 mm
05:15 AM 7.5°F-13.6°C -0.6°F-18.1°C 69% 3.5 mph SW5.6 kmh SW 3.5 mph5.6 kmh 30.02 in1016.6 mb - 0.00 in0.0 mm 0.00 in0.0 mm
05:10 AM 7.7°F-13.5°C -0.4°F-18.0°C 69% 2.3 mph WSW3.7 kmh WSW 2.3 mph3.7 kmh 30.02 in1016.6 mb - 0.00 in0.0 mm 0.00 in0.0 mm
05:05 AM 8.1°F-13.3°C -0.3°F-17.9°C 68% 1.2 mph WSW1.9 kmh WSW 1.2 mph1.9 kmh 30.02 in1016.6 mb - 0.00 in0.0 mm 0.00 in0.0 mm
05:00 AM 8.2°F-13.2°C -0.5°F-18.1°C 67% 2.3 mph W3.7 kmh W 2.3 mph3.7 kmh 30.02 in1016.6 mb - 0.00 in0.0 mm 0.00 in0.0 mm
04:55 AM 8.6°F-13.0°C -0.1°F-17.8°C 67% 2.3 mph WSW3.7 kmh WSW 3.5 mph5.6 kmh 30.02 in1016.6 mb - 0.00 in0.0 mm 0.00 in0.0 mm
04:50 AM 8.8°F-12.9°C 0.1°F-17.7°C 67% 3.5 mph WSW5.6 kmh WSW 3.5 mph5.6 kmh 30.02 in1016.6 mb - 0.00 in0.0 mm 0.00 in0.0 mm
04:45 AM 8.8°F-12.9°C 0.1°F-17.7°C 67% 3.5 mph W5.6 kmh W 3.5 mph5.6 kmh 30.02 in1016.6 mb - 0.00 in0.0 mm 0.00 in0.0 mm
04:40 AM 8.8°F-12.9°C -0.3°F-17.9°C 66% 3.5 mph WSW5.6 kmh WSW 3.5 mph5.6 kmh 30.02 in1016.6 mb - 0.00 in0.0 mm 0.00 in0.0 mm
04:35 AM 8.9°F-12.8°C -0.1°F-17.8°C 66% 2.3 mph W3.7 kmh W 2.3 mph3.7 kmh 30.02 in1016.6 mb - 0.00 in0.0 mm 0.00 in0.0 mm
04:30 AM 9.0°F-12.8°C -0.1°F-17.8°C 66% 2.3 mph W3.7 kmh W 2.3 mph3.7 kmh 30.02 in1016.6 mb - 0.00 in0.0 mm 0.00 in0.0 mm
04:25 AM 9.1°F-12.7°C 0.0°F-17.8°C 66% 3.5 mph SW5.6 kmh SW 3.5 mph5.6 kmh 30.02 in1016.6 mb - 0.00 in0.0 mm 0.00 in0.0 mm
04:20 AM 9.1°F-12.7°C -0.3°F-17.9°C 65% 2.3 mph SW3.7 kmh SW 4.6 mph7.4 kmh 30.02 in1016.6 mb - 0.00 in0.0 mm 0.00 in0.0 mm
04:15 AM 9.4°F-12.6°C -0.3°F-17.9°C 64% 2.3 mph W3.7 kmh W 2.3 mph3.7 kmh 30.02 in1016.6 mb - 0.00 in0.0 mm 0.00 in0.0 mm
04:10 AM 9.7°F-12.4°C 0.0°F-17.8°C 64% 2.3 mph SW3.7 kmh SW 3.5 mph5.6 kmh 30.02 in1016.6 mb - 0.00 in0.0 mm 0.00 in0.0 mm
04:05 AM 9.7°F-12.4°C 0.0°F-17.8°C 64% 4.6 mph W7.4 kmh W 4.6 mph7.4 kmh 30.02 in1016.6 mb - 0.00 in0.0 mm 0.00 in0.0 mm
04:00 AM 9.9°F-12.3°C 0.1°F-17.7°C 64% 1.2 mph WSW1.9 kmh WSW 2.3 mph3.7 kmh 30.02 in1016.6 mb - 0.00 in0.0 mm 0.00 in0.0 mm
03:55 AM 9.9°F-12.3°C 0.1°F-17.7°C 64% 5.8 mph SW9.3 kmh SW 9.2 mph14.8 kmh 30.02 in1016.6 mb - 0.00 in0.0 mm 0.00 in0.0 mm
03:50 AM 9.7°F-12.4°C 0.0°F-17.8°C 64% 1.2 mph W1.9 kmh W 4.6 mph7.4 kmh 30.02 in1016.6 mb - 0.00 in0.0 mm 0.00 in0.0 mm
03:45 AM 9.9°F-12.3°C -0.2°F-17.9°C 63% 2.3 mph WSW3.7 kmh WSW 3.5 mph5.6 kmh 30.02 in1016.6 mb - 0.00 in0.0 mm 0.00 in0.0 mm
03:40 AM 9.9°F-12.3°C -0.2°F-17.9°C 63% 3.5 mph SW5.6 kmh SW 4.6 mph7.4 kmh 30.02 in1016.6 mb - 0.00 in0.0 mm 0.00 in0.0 mm
03:35 AM 9.9°F-12.3°C -0.2°F-17.9°C 63% 2.3 mph WSW3.7 kmh WSW 3.5 mph5.6 kmh 30.02 in1016.6 mb - 0.00 in0.0 mm 0.00 in0.0 mm
03:30 AM 10.1°F-12.2°C -0.3°F-17.9°C 62% 3.5 mph WSW5.6 kmh WSW 2.3 mph3.7 kmh 30.02 in1016.6 mb - 0.00 in0.0 mm 0.00 in0.0 mm
03:25 AM 10.4°F-12.0°C -0.1°F-17.8°C 62% 2.3 mph WSW3.7 kmh WSW 2.3 mph3.7 kmh 30.03 in1016.9 mb - 0.00 in0.0 mm 0.00 in0.0 mm
03:20 AM 10.6°F-11.9°C 0.1°F-17.7°C 62% 3.5 mph SW5.6 kmh SW 4.6 mph7.4 kmh 30.03 in1016.9 mb - 0.00 in0.0 mm 0.00 in0.0 mm
03:15 AM 10.8°F-11.8°C 0.0°F-17.8°C 61% 2.3 mph WSW3.7 kmh WSW 2.3 mph3.7 kmh 30.03 in1016.9 mb - 0.00 in0.0 mm 0.00 in0.0 mm
03:10 AM 10.9°F-11.7°C 0.1°F-17.7°C 61% 2.3 mph W3.7 kmh W 5.8 mph9.3 kmh 30.03 in1016.9 mb - 0.00 in0.0 mm 0.00 in0.0 mm
03:05 AM 11.1°F-11.6°C -0.1°F-17.8°C 60% 2.3 mph W3.7 kmh W 1.2 mph1.9 kmh 30.03 in1016.9 mb - 0.00 in0.0 mm 0.00 in0.0 mm
03:00 AM 11.3°F-11.5°C 0.1°F-17.7°C 60% 2.3 mph WSW3.7 kmh WSW 3.5 mph5.6 kmh 30.03 in1016.9 mb - 0.00 in0.0 mm 0.00 in0.0 mm
02:55 AM 11.5°F-11.4°C -0.4°F-18.0°C 58% 2.3 mph W3.7 kmh W 4.6 mph7.4 kmh 30.03 in1016.9 mb - 0.00 in0.0 mm 0.00 in0.0 mm
02:50 AM 11.7°F-11.3°C -0.3°F-17.9°C 58% 5.8 mph W9.3 kmh W 4.6 mph7.4 kmh 30.03 in1016.9 mb - 0.00 in0.0 mm 0.00 in0.0 mm
02:45 AM 11.7°F-11.3°C -0.3°F-17.9°C 58% 3.5 mph W5.6 kmh W 4.6 mph7.4 kmh 30.03 in1016.9 mb - 0.00 in0.0 mm 0.00 in0.0 mm
02:40 AM 11.7°F-11.3°C -0.6°F-18.1°C 57% 4.6 mph W7.4 kmh W 4.6 mph7.4 kmh 30.03 in1016.9 mb - 0.00 in0.0 mm 0.00 in0.0 mm
02:35 AM 11.7°F-11.3°C -0.6°F-18.1°C 57% 1.2 mph SW1.9 kmh SW 2.3 mph3.7 kmh 30.03 in1016.9 mb - 0.00 in0.0 mm 0.00 in0.0 mm
02:30 AM 11.7°F-11.3°C -0.6°F-18.1°C 57% 3.5 mph WSW5.6 kmh WSW 3.5 mph5.6 kmh 30.03 in1016.9 mb - 0.00 in0.0 mm 0.00 in0.0 mm
02:25 AM 11.7°F-11.3°C -0.6°F-18.1°C 57% 3.5 mph W5.6 kmh W 3.5 mph5.6 kmh 30.04 in1017.3 mb - 0.00 in0.0 mm 0.00 in0.0 mm
02:20 AM 11.7°F-11.3°C -1.0°F-18.3°C 56% 2.3 mph WSW3.7 kmh WSW 2.3 mph3.7 kmh 30.04 in1017.3 mb - 0.00 in0.0 mm 0.00 in0.0 mm
02:15 AM 11.7°F-11.3°C -1.0°F-18.3°C 56% 4.6 mph W7.4 kmh W 5.8 mph9.3 kmh 30.03 in1016.9 mb - 0.00 in0.0 mm 0.00 in0.0 mm
02:10 AM 11.7°F-11.3°C -1.0°F-18.3°C 56% 3.5 mph W5.6 kmh W 5.8 mph9.3 kmh 30.03 in1016.9 mb - 0.00 in0.0 mm 0.00 in0.0 mm
02:05 AM 11.7°F-11.3°C -1.0°F-18.3°C 56% 2.3 mph W3.7 kmh W 3.5 mph5.6 kmh 30.03 in1016.9 mb - 0.00 in0.0 mm 0.00 in0.0 mm
02:00 AM 11.7°F-11.3°C -1.4°F-18.6°C 55% 2.3 mph W3.7 kmh W 2.3 mph3.7 kmh 30.04 in1017.3 mb - 0.00 in0.0 mm 0.00 in0.0 mm
01:55 AM 11.7°F-11.3°C -1.4°F-18.6°C 55% 3.5 mph W5.6 kmh W 6.9 mph11.1 kmh 30.04 in1017.3 mb - 0.00 in0.0 mm 0.00 in0.0 mm
01:50 AM 11.7°F-11.3°C -1.4°F-18.6°C 55% 3.5 mph WSW5.6 kmh WSW 3.5 mph5.6 kmh 30.04 in1017.3 mb - 0.00 in0.0 mm 0.00 in0.0 mm
01:45 AM 11.7°F-11.3°C -1.4°F-18.6°C 55% 3.5 mph WNW5.6 kmh WNW 4.6 mph7.4 kmh 30.04 in1017.3 mb - 0.00 in0.0 mm 0.00 in0.0 mm
01:40 AM 11.7°F-11.3°C -1.4°F-18.6°C 55% 3.5 mph WSW5.6 kmh WSW 5.8 mph9.3 kmh 30.04 in1017.3 mb - 0.00 in0.0 mm 0.00 in0.0 mm
01:35 AM 11.7°F-11.3°C -1.4°F-18.6°C 55% 2.3 mph WSW3.7 kmh WSW 4.6 mph7.4 kmh 30.04 in1017.3 mb - 0.00 in0.0 mm 0.00 in0.0 mm
01:30 AM 11.8°F-11.2°C -2.1°F-18.9°C 53% 3.5 mph WSW5.6 kmh WSW 5.8 mph9.3 kmh 30.04 in1017.3 mb - 0.00 in0.0 mm 0.00 in0.0 mm
01:25 AM 11.8°F-11.2°C -2.1°F-18.9°C 53% 2.3 mph WSW3.7 kmh WSW 3.5 mph5.6 kmh 30.04 in1017.3 mb - 0.00 in0.0 mm 0.00 in0.0 mm
01:20 AM 11.8°F-11.2°C -2.5°F-19.2°C 52% 4.6 mph WSW7.4 kmh WSW 4.6 mph7.4 kmh 30.04 in1017.3 mb - 0.00 in0.0 mm 0.00 in0.0 mm
01:15 AM 12.0°F-11.1°C -2.3°F-19.1°C 52% 1.2 mph WSW1.9 kmh WSW 6.9 mph11.1 kmh 30.04 in1017.3 mb - 0.00 in0.0 mm 0.00 in0.0 mm
01:10 AM 12.2°F-11.0°C -2.1°F-18.9°C 52% 3.5 mph SW5.6 kmh SW 2.3 mph3.7 kmh 30.04 in1017.3 mb - 0.00 in0.0 mm 0.00 in0.0 mm
01:05 AM 12.2°F-11.0°C -2.1°F-18.9°C 52% 5.8 mph SW9.3 kmh SW 8.1 mph13.0 kmh 30.04 in1017.3 mb - 0.00 in0.0 mm 0.00 in0.0 mm
01:00 AM 12.2°F-11.0°C -2.5°F-19.2°C 51% 1.2 mph WSW1.9 kmh WSW -- 30.05 in1017.6 mb - 0.00 in0.0 mm 0.00 in0.0 mm
12:55 AM 12.4°F-10.9°C -2.3°F-19.1°C 51% 4.6 mph SW7.4 kmh SW 6.9 mph11.1 kmh 30.05 in1017.6 mb - 0.00 in0.0 mm 0.00 in0.0 mm
12:50 AM 12.4°F-10.9°C -2.3°F-19.1°C 51% 3.5 mph WSW5.6 kmh WSW 4.6 mph7.4 kmh 30.05 in1017.6 mb - 0.00 in0.0 mm 0.00 in0.0 mm
12:45 AM 12.6°F-10.8°C -2.6°F-19.2°C 50% 3.5 mph W5.6 kmh W 4.6 mph7.4 kmh 30.05 in1017.6 mb - 0.00 in0.0 mm 0.00 in0.0 mm
12:40 AM 12.7°F-10.7°C -2.5°F-19.2°C 50% 4.6 mph WSW7.4 kmh WSW 5.8 mph9.3 kmh 30.05 in1017.6 mb - 0.00 in0.0 mm 0.00 in0.0 mm
12:35 AM 12.7°F-10.7°C -2.0°F-18.9°C 51% 3.5 mph W5.6 kmh W 4.6 mph7.4 kmh 30.05 in1017.6 mb - 0.00 in0.0 mm 0.00 in0.0 mm
12:30 AM 12.7°F-10.7°C -2.5°F-19.2°C 50% 4.6 mph WSW7.4 kmh WSW 6.9 mph11.1 kmh 30.05 in1017.6 mb - 0.00 in0.0 mm 0.00 in0.0 mm
12:25 AM 12.9°F-10.6°C -2.3°F-19.1°C 50% 2.3 mph WSW3.7 kmh WSW 3.5 mph5.6 kmh 30.06 in1017.9 mb - 0.00 in0.0 mm 0.00 in0.0 mm
12:20 AM 13.1°F-10.5°C -2.5°F-19.2°C 49% 3.5 mph SW5.6 kmh SW 5.8 mph9.3 kmh 30.06 in1017.9 mb - 0.00 in0.0 mm 0.00 in0.0 mm
12:15 AM 13.1°F-10.5°C -2.5°F-19.2°C 49% 5.8 mph W9.3 kmh W 6.9 mph11.1 kmh 30.06 in1017.9 mb - 0.00 in0.0 mm 0.00 in0.0 mm
12:10 AM 13.1°F-10.5°C -2.5°F-19.2°C 49% 5.8 mph W9.3 kmh W 5.8 mph9.3 kmh 30.06 in1017.9 mb - 0.00 in0.0 mm 0.00 in0.0 mm
12:05 AM 13.1°F-10.5°C -2.5°F-19.2°C 49% 3.5 mph SSW5.6 kmh SSW 3.5 mph5.6 kmh 30.06 in1017.9 mb - 0.00 in0.0 mm 0.00 in0.0 mm
12:00 AM 12.9°F-10.6°C -2.7°F-19.3°C 49% 4.6 mph WSW7.4 kmh WSW 6.9 mph11.1 kmh 30.06 in1017.9 mb - 0.00 in0.0 mm 0.00 in0.0 mm